createdAt,value
2022-08-02T00:00:47.235Z,22.02
2022-08-02T00:03:16.159Z,22.06
2022-08-02T00:05:53.110Z,22.03
2022-08-02T00:08:24.342Z,22.01
2022-08-02T00:10:52.684Z,21.96
2022-08-02T00:13:21.521Z,21.94
2022-08-02T00:15:49.839Z,21.92
2022-08-02T00:18:19.090Z,21.97
2022-08-02T00:20:47.481Z,21.96
2022-08-02T00:23:16.596Z,21.95
2022-08-02T00:25:55.041Z,21.94
2022-08-02T00:28:27.738Z,21.93
2022-08-02T00:30:58.176Z,21.94
2022-08-02T00:34:26.205Z,21.96
2022-08-02T00:36:17.535Z,21.96
2022-08-02T00:38:48.357Z,21.98
2022-08-02T00:41:20.407Z,21.93
2022-08-02T00:43:50.876Z,21.87
2022-08-02T00:46:21.372Z,21.86
2022-08-02T00:48:50.643Z,21.86
2022-08-02T00:51:19.294Z,21.84
2022-08-02T00:53:48.556Z,21.83
2022-08-02T00:56:19.250Z,21.81
2022-08-02T00:58:48.486Z,21.84
2022-08-02T01:01:17.455Z,21.79
2022-08-02T01:03:45.899Z,21.81
2022-08-02T01:06:15.206Z,21.86
2022-08-02T01:08:44.425Z,21.92
2022-08-02T01:11:13.864Z,21.83
2022-08-02T01:13:44.153Z,21.89
2022-08-02T01:16:20.090Z,21.84
2022-08-02T01:18:54.512Z,21.76
2022-08-02T01:21:36.800Z,21.50
2022-08-02T01:24:21.277Z,21.32
2022-08-02T01:26:55.157Z,21.35
2022-08-02T01:29:30.539Z,21.45
2022-08-02T01:32:05.233Z,21.47
2022-08-02T01:34:36.891Z,21.40
2022-08-02T01:37:12.635Z,21.41
2022-08-02T01:39:44.636Z,21.42
2022-08-02T01:42:14.055Z,21.46
2022-08-02T01:44:47.288Z,21.39
2022-08-02T01:47:20.411Z,21.41
2022-08-02T01:49:53.013Z,21.42
2022-08-02T01:52:22.906Z,21.39
2022-08-02T01:54:58.478Z,21.41
2022-08-02T01:57:29.291Z,21.39
2022-08-02T02:00:01.890Z,21.33
2022-08-02T02:02:33.378Z,21.18
2022-08-02T02:05:04.202Z,21.04
2022-08-02T02:07:36.363Z,20.97
2022-08-02T02:10:09.125Z,21.00
2022-08-02T02:12:40.459Z,20.90
2022-08-02T02:15:14.290Z,20.90
2022-08-02T02:17:52.875Z,20.87
2022-08-02T02:20:57.198Z,20.74
2022-08-02T02:23:26.169Z,20.69
2022-08-02T02:25:59.482Z,20.63
2022-08-02T02:28:32.871Z,20.61
2022-08-02T02:31:08.555Z,20.63
2022-08-02T02:33:42.265Z,20.71
2022-08-02T02:36:12.910Z,20.70
2022-08-02T02:38:42.452Z,20.77
2022-08-02T02:41:12.599Z,20.81
2022-08-02T02:43:43.242Z,20.86
2022-08-02T02:46:14.516Z,20.86
2022-08-02T02:48:43.396Z,20.83
2022-08-02T02:51:14.157Z,20.89
2022-08-02T02:54:30.383Z,20.91
2022-08-02T02:56:34.363Z,20.81
2022-08-02T02:59:03.503Z,20.86
2022-08-02T03:01:55.929Z,20.98
2022-08-02T03:04:25.139Z,20.99
2022-08-02T03:06:54.155Z,21.00
2022-08-02T03:09:22.627Z,20.98
2022-08-02T03:11:52.911Z,20.91
2022-08-02T03:14:21.436Z,20.85
2022-08-02T03:16:53.675Z,20.85
2022-08-02T03:19:24.115Z,20.78
2022-08-02T03:22:02.119Z,20.72
2022-08-02T03:24:30.466Z,20.65
2022-08-02T03:26:59.399Z,20.63
2022-08-02T03:29:30.401Z,20.69
2022-08-02T03:32:04.651Z,20.75
2022-08-02T03:34:33.075Z,20.77
2022-08-02T03:37:04.146Z,20.71
2022-08-02T03:39:33.487Z,20.73
2022-08-02T03:42:03.299Z,20.75
2022-08-02T03:44:32.659Z,20.73
2022-08-02T03:47:02.151Z,20.71
2022-08-02T03:49:32.743Z,20.69
2022-08-02T03:52:02.894Z,20.74
2022-08-02T03:54:33.037Z,20.76
2022-08-02T03:57:03.960Z,20.79
2022-08-02T03:59:41.748Z,20.81
2022-08-02T04:02:10.707Z,20.81
2022-08-02T04:04:41.814Z,20.78
2022-08-02T04:07:10.531Z,20.82
2022-08-02T04:09:39.855Z,20.86
2022-08-02T04:12:09.603Z,20.88
2022-08-02T04:14:38.249Z,20.90
2022-08-02T04:17:10.563Z,20.91
2022-08-02T04:19:44.568Z,20.94
2022-08-02T04:22:19.875Z,20.88
2022-08-02T04:24:51.786Z,20.87
2022-08-02T04:27:50.814Z,20.87
2022-08-02T04:30:12.924Z,20.89
2022-08-02T04:32:42.199Z,20.84
2022-08-02T04:35:19.058Z,20.85
2022-08-02T04:38:08.600Z,20.86
2022-08-02T04:40:39.157Z,20.89
2022-08-02T04:43:09.037Z,20.90
2022-08-02T04:45:38.314Z,20.88
2022-08-02T04:48:08.189Z,20.89
2022-08-02T04:50:37.944Z,20.96
2022-08-02T04:53:06.772Z,20.97
2022-08-02T04:55:35.209Z,20.98
2022-08-02T04:58:23.769Z,20.95
2022-08-02T05:00:53.045Z,20.97
2022-08-02T05:03:22.226Z,21.01
2022-08-02T05:05:52.323Z,21.03
2022-08-02T05:08:20.650Z,20.99
2022-08-02T05:10:49.796Z,21.03
2022-08-02T05:13:18.144Z,21.01
2022-08-02T05:15:49.690Z,21.05
2022-08-02T05:18:18.079Z,21.03
2022-08-02T05:20:46.614Z,21.03
2022-08-02T05:23:16.687Z,20.90
2022-08-02T05:25:45.320Z,20.88
2022-08-02T05:28:14.267Z,20.78
2022-08-02T05:30:42.611Z,20.79
2022-08-02T05:33:11.988Z,20.79
2022-08-02T05:35:40.689Z,20.81
2022-08-02T05:38:10.313Z,20.91
2022-08-02T05:40:46.695Z,21.00
2022-08-02T05:43:24.201Z,21.08
2022-08-02T05:45:54.905Z,21.14
2022-08-02T05:48:27.648Z,21.13
2022-08-02T05:51:05.723Z,21.18
2022-08-02T05:53:39.888Z,21.25
2022-08-02T05:56:20.130Z,21.32
2022-08-02T05:58:57.581Z,21.30
2022-08-02T06:01:30.514Z,21.29
2022-08-02T06:04:01.290Z,21.21
2022-08-02T06:06:33.383Z,21.22
2022-08-02T06:09:03.967Z,21.23
2022-08-02T06:11:38.508Z,21.26
2022-08-02T06:14:08.304Z,21.31
2022-08-02T06:16:42.505Z,21.33
2022-08-02T06:19:13.205Z,21.35
2022-08-02T06:22:30.614Z,21.34
2022-08-02T06:24:34.068Z,21.29
2022-08-02T06:27:04.331Z,21.32
2022-08-02T06:29:38.515Z,21.28
2022-08-02T06:32:10.196Z,21.31
2022-08-02T06:34:39.054Z,21.35
2022-08-02T06:37:15.574Z,21.39
2022-08-02T06:39:46.846Z,21.42
2022-08-02T06:42:27.312Z,21.43
2022-08-02T06:44:58.499Z,21.39
2022-08-02T06:47:27.956Z,21.35
2022-08-02T06:49:56.958Z,21.37
2022-08-02T06:52:29.620Z,21.42
2022-08-02T06:55:00.485Z,21.43
2022-08-02T06:57:32.293Z,21.47
2022-08-02T07:00:02.918Z,21.45
2022-08-02T07:02:32.591Z,21.45
2022-08-02T07:05:01.096Z,21.46
2022-08-02T07:07:29.979Z,21.51
2022-08-02T07:10:01.279Z,21.54
2022-08-02T07:12:32.599Z,21.58
2022-08-02T07:15:03.026Z,21.67
2022-08-02T07:17:32.296Z,21.73
2022-08-02T07:20:02.156Z,21.77
2022-08-02T07:22:31.372Z,21.83
2022-08-02T07:25:01.981Z,21.84
2022-08-02T07:27:32.152Z,21.89
2022-08-02T07:30:02.187Z,21.91
2022-08-02T07:32:33.044Z,21.96
2022-08-02T07:35:05.144Z,22.05
2022-08-02T07:37:53.607Z,22.09
2022-08-02T07:40:25.587Z,22.15
2022-08-02T07:43:02.769Z,22.21
2022-08-02T07:45:35.656Z,22.31
2022-08-02T07:48:06.041Z,22.44
2022-08-02T07:50:34.872Z,22.45
2022-08-02T07:53:03.240Z,22.49
2022-08-02T07:55:39.681Z,22.56
2022-08-02T07:58:13.496Z,22.60
2022-08-02T08:00:43.695Z,22.56
2022-08-02T08:03:12.426Z,22.51
2022-08-02T08:05:41.035Z,22.68
2022-08-02T08:08:16.684Z,22.82
2022-08-02T08:10:46.091Z,22.96
2022-08-02T08:13:16.819Z,23.05
2022-08-02T08:15:51.734Z,23.09
2022-08-02T08:18:21.751Z,23.18
2022-08-02T08:20:51.636Z,23.29
2022-08-02T08:23:20.212Z,23.36
2022-08-02T08:25:48.785Z,23.47
2022-08-02T08:28:18.523Z,23.59
2022-08-02T08:30:47.567Z,23.64
2022-08-02T08:33:16.707Z,23.66
2022-08-02T08:35:45.320Z,23.66
2022-08-02T08:38:15.786Z,23.64
2022-08-02T08:40:44.775Z,23.79
2022-08-02T08:43:14.706Z,23.98
2022-08-02T08:45:46.607Z,24.08
2022-08-02T08:48:30.996Z,24.17
2022-08-02T08:51:05.696Z,24.33
2022-08-02T08:53:41.030Z,24.45
2022-08-02T08:56:15.908Z,24.59
2022-08-02T08:58:47.379Z,24.81
2022-08-02T09:01:18.096Z,24.91
2022-08-02T09:03:46.940Z,24.98
2022-08-02T09:06:15.957Z,24.94
2022-08-02T09:08:44.876Z,24.92
2022-08-02T09:11:15.775Z,24.98
2022-08-02T09:13:53.648Z,25.17
2022-08-02T09:16:35.184Z,25.27
2022-08-02T09:19:18.623Z,25.42
2022-08-02T09:21:48.343Z,25.60
2022-08-02T09:24:18.660Z,25.65
2022-08-02T09:26:48.003Z,25.76
2022-08-02T09:29:17.184Z,25.93
2022-08-02T09:31:49.963Z,26.10
2022-08-02T09:34:20.071Z,26.31
2022-08-02T09:36:48.731Z,26.61
2022-08-02T09:39:26.674Z,26.85
2022-08-02T09:42:10.585Z,27.04
2022-08-02T09:44:39.660Z,27.00
2022-08-02T09:47:18.107Z,27.05
2022-08-02T09:49:52.385Z,27.06
2022-08-02T09:52:37.079Z,27.24
2022-08-02T09:55:13.421Z,27.35
2022-08-02T09:57:41.885Z,27.75
2022-08-02T10:00:14.240Z,27.91
2022-08-02T10:03:21.639Z,27.73
2022-08-02T10:05:57.333Z,27.53
2022-08-02T10:08:33.687Z,27.27
2022-08-02T10:11:03.475Z,27.65
2022-08-02T10:13:34.612Z,27.88
2022-08-02T10:16:04.788Z,27.74
2022-08-02T10:18:39.246Z,28.07
2022-08-02T10:21:14.777Z,28.55
2022-08-02T10:23:45.574Z,28.57
2022-08-02T10:26:17.186Z,28.20
2022-08-02T10:28:49.316Z,28.26
2022-08-02T10:31:22.384Z,28.73
2022-08-02T10:33:53.885Z,29.14
2022-08-02T10:36:27.477Z,28.97
2022-08-02T10:38:58.741Z,29.00
2022-08-02T10:41:45.164Z,29.38
2022-08-02T10:44:26.660Z,29.73
2022-08-02T10:47:23.247Z,29.94
2022-08-02T10:49:55.442Z,30.13
2022-08-02T10:52:24.824Z,29.85
2022-08-02T10:54:57.124Z,29.64
2022-08-02T10:57:28.279Z,29.43
2022-08-02T10:59:59.249Z,29.81
2022-08-02T11:02:41.879Z,30.47
2022-08-02T11:05:17.869Z,31.03
2022-08-02T11:07:49.426Z,31.48
2022-08-02T11:10:38.730Z,31.46
2022-08-02T11:13:10.892Z,31.46
2022-08-02T11:16:01.228Z,31.46
2022-08-02T11:19:06.680Z,31.49
2022-08-02T11:21:37.332Z,31.66
2022-08-02T11:24:31.080Z,31.66
2022-08-02T11:27:00.858Z,31.68
2022-08-02T11:29:38.743Z,31.88
2022-08-02T11:32:08.557Z,32.44
2022-08-02T11:34:38.391Z,32.76
2022-08-02T11:37:08.374Z,33.24
2022-08-02T11:39:37.553Z,33.55
2022-08-02T11:42:06.146Z,33.23
2022-08-02T11:47:33.020Z,33.32
2022-08-02T11:50:08.655Z,33.46
2022-08-02T11:52:39.065Z,33.32
2022-08-02T11:55:09.702Z,33.03
2022-08-02T11:58:04.783Z,32.63
2022-08-02T12:00:30.755Z,32.70
2022-08-02T12:03:00.046Z,33.16
2022-08-02T12:08:22.178Z,33.14
2022-08-02T12:10:54.164Z,32.81
2022-08-02T12:13:22.624Z,32.92
2022-08-02T12:15:51.351Z,33.56
2022-08-02T12:18:39.727Z,34.15
2022-08-02T12:21:23.264Z,34.46
2022-08-02T12:23:59.438Z,34.54
2022-08-02T12:26:30.782Z,34.41
2022-08-02T12:29:01.383Z,34.40
2022-08-02T12:31:56.794Z,34.18
2022-08-02T12:34:31.706Z,34.33
2022-08-02T12:37:06.347Z,34.31
2022-08-02T12:39:41.665Z,34.51
2022-08-02T12:42:12.193Z,34.69
2022-08-02T12:44:52.597Z,35.23
2022-08-02T12:47:22.598Z,35.37
2022-08-02T12:50:12.052Z,35.78
2022-08-02T12:52:40.911Z,36.07
2022-08-02T12:55:25.937Z,36.60
2022-08-02T12:58:14.706Z,37.08
2022-08-02T13:00:54.528Z,37.32
2022-08-02T13:04:11.238Z,37.07
2022-08-02T13:06:41.021Z,37.03
2022-08-02T13:09:02.583Z,36.87
2022-08-02T13:11:32.385Z,36.92
2022-08-02T13:14:01.116Z,36.71
2022-08-02T13:16:31.639Z,36.88
2022-08-02T13:19:00.839Z,37.14
2022-08-02T13:21:41.774Z,37.12
2022-08-02T13:24:37.861Z,37.52
2022-08-02T13:27:09.508Z,37.77
2022-08-02T13:29:39.312Z,37.88
2022-08-02T13:32:07.969Z,37.87
2022-08-02T13:34:36.378Z,37.94
2022-08-02T13:37:05.861Z,38.12
2022-08-02T13:39:34.282Z,38.35
2022-08-02T13:42:03.320Z,37.80
2022-08-02T13:44:33.197Z,37.59
2022-08-02T13:47:02.396Z,37.93
2022-08-02T13:49:50.752Z,38.20
2022-08-02T13:52:20.663Z,37.60
2022-08-02T13:54:49.274Z,37.28
2022-08-02T13:57:17.695Z,36.64
2022-08-02T13:59:56.938Z,36.77
2022-08-02T14:02:28.365Z,37.09
2022-08-02T14:04:58.082Z,37.53
2022-08-02T14:07:26.457Z,37.79
2022-08-02T14:09:55.429Z,37.69
2022-08-02T14:12:23.824Z,37.45
2022-08-02T14:14:54.138Z,37.45
2022-08-02T14:17:22.538Z,37.65
2022-08-02T14:19:51.797Z,37.89
2022-08-02T14:22:20.246Z,38.06
2022-08-02T14:24:49.156Z,38.22
2022-08-02T14:27:17.532Z,38.04
2022-08-02T14:29:48.125Z,38.09
2022-08-02T14:32:17.966Z,38.22
2022-08-02T14:34:46.517Z,38.47
2022-08-02T14:37:17.020Z,38.69
2022-08-02T14:40:00.095Z,38.33
2022-08-02T14:42:29.917Z,37.88
2022-08-02T14:44:58.426Z,37.11
2022-08-02T14:47:28.179Z,36.82
2022-08-02T14:49:56.856Z,37.11
2022-08-02T14:52:25.585Z,37.59
2022-08-02T14:54:53.976Z,37.93
2022-08-02T14:57:24.596Z,38.06
2022-08-02T14:59:53.108Z,38.34
2022-08-02T15:02:22.156Z,38.67
2022-08-02T15:04:51.967Z,38.56
2022-08-02T15:07:20.722Z,38.50
2022-08-02T15:09:49.725Z,38.63
2022-08-02T15:12:18.364Z,38.58
2022-08-02T15:14:47.135Z,38.55
2022-08-02T15:17:15.494Z,38.51
2022-08-02T15:19:58.943Z,38.29
2022-08-02T15:22:30.990Z,38.08
2022-08-02T15:24:59.700Z,38.31
2022-08-02T15:27:28.891Z,38.61
2022-08-02T15:30:00.355Z,38.76
2022-08-02T15:32:29.716Z,38.60
2022-08-02T15:34:58.110Z,38.08
2022-08-02T15:37:31.015Z,37.87
2022-08-02T15:40:01.806Z,37.56
2022-08-02T15:42:31.140Z,37.75
2022-08-02T15:45:00.721Z,37.42
2022-08-02T15:47:29.503Z,37.16
2022-08-02T15:49:58.690Z,37.20
2022-08-02T15:52:27.589Z,37.41
2022-08-02T15:54:56.766Z,37.56
2022-08-02T15:57:37.583Z,37.68
2022-08-02T16:00:15.755Z,37.59
2022-08-02T16:02:47.871Z,37.22
2022-08-02T16:05:18.492Z,37.16
2022-08-02T16:07:47.548Z,37.06
2022-08-02T16:10:17.094Z,36.79
2022-08-02T16:12:47.872Z,36.75
2022-08-02T16:15:16.379Z,36.60
2022-08-02T16:17:48.912Z,36.51
2022-08-02T16:20:23.391Z,36.35
2022-08-02T16:22:51.823Z,36.21
2022-08-02T16:25:20.780Z,36.16
2022-08-02T16:28:06.638Z,35.84
2022-08-02T16:30:37.150Z,35.02
2022-08-02T16:33:05.707Z,34.57
2022-08-02T16:35:35.167Z,34.42
2022-08-02T16:38:03.586Z,34.14
2022-08-02T16:40:34.388Z,34.14
2022-08-02T16:43:09.165Z,34.34
2022-08-02T16:45:37.901Z,34.50
2022-08-02T16:48:07.693Z,34.56
2022-08-02T16:50:38.421Z,34.53
2022-08-02T16:53:07.723Z,34.60
2022-08-02T16:55:37.247Z,34.47
2022-08-02T16:58:09.516Z,34.18
2022-08-02T17:00:38.782Z,34.04
2022-08-02T17:03:16.839Z,33.93
2022-08-02T17:05:56.200Z,33.98
2022-08-02T17:08:31.831Z,34.05
2022-08-02T17:11:03.571Z,33.97
2022-08-02T17:13:37.949Z,33.68
2022-08-02T17:16:26.014Z,33.29
2022-08-02T17:18:56.614Z,33.18
2022-08-02T17:21:24.990Z,33.04
2022-08-02T17:24:05.191Z,33.12
2022-08-02T17:26:35.562Z,33.04
2022-08-02T17:29:16.425Z,32.94
2022-08-02T17:32:04.791Z,32.75
2022-08-02T17:34:37.242Z,32.54
2022-08-02T17:37:06.757Z,32.37
2022-08-02T17:39:43.911Z,32.28
2022-08-02T17:42:23.464Z,32.27
2022-08-02T17:45:00.991Z,32.11
2022-08-02T17:47:42.079Z,32.04
2022-08-02T17:50:12.490Z,31.81
2022-08-02T17:52:51.776Z,31.63
2022-08-02T17:55:22.665Z,31.60
2022-08-02T17:57:57.822Z,31.53
2022-08-02T18:00:34.738Z,31.49
2022-08-02T18:03:05.809Z,31.41
2022-08-02T18:05:39.675Z,31.40
2022-08-02T18:08:22.906Z,31.36
2022-08-02T18:10:52.764Z,31.29
2022-08-02T18:13:21.171Z,31.18
2022-08-02T18:15:59.070Z,31.06
2022-08-02T18:18:30.366Z,31.00
2022-08-02T18:21:08.190Z,30.92
2022-08-02T18:23:58.621Z,30.81
2022-08-02T18:26:29.314Z,30.70
2022-08-02T18:28:58.604Z,30.58
2022-08-02T18:31:28.766Z,30.48
2022-08-02T18:34:08.504Z,30.41
2022-08-02T18:36:37.037Z,30.27
2022-08-02T18:39:16.852Z,30.13
2022-08-02T18:41:47.927Z,30.12
2022-08-02T18:44:17.232Z,30.01
2022-08-02T18:46:49.319Z,29.95
2022-08-02T18:49:18.536Z,29.86
2022-08-02T18:51:47.014Z,29.74
2022-08-02T18:54:16.687Z,29.72
2022-08-02T18:56:59.317Z,29.56
2022-08-02T18:59:27.964Z,29.37
2022-08-02T19:02:06.826Z,29.24
2022-08-02T19:04:35.463Z,29.25
2022-08-02T19:07:07.673Z,29.25
2022-08-02T19:09:40.104Z,29.19
2022-08-02T19:12:11.333Z,29.15
2022-08-02T19:14:41.465Z,29.08
2022-08-02T19:17:53.959Z,29.03
2022-08-02T19:20:00.131Z,28.94
2022-08-02T19:22:29.935Z,28.87
2022-08-02T19:25:01.563Z,28.79
2022-08-02T19:27:32.508Z,28.77
2022-08-02T19:30:03.279Z,28.64
2022-08-02T19:32:40.217Z,28.55
2022-08-02T19:35:28.257Z,28.45
2022-08-02T19:38:07.366Z,28.48
2022-08-02T19:40:37.020Z,28.38
2022-08-02T19:44:20.806Z,28.31
2022-08-02T19:45:57.137Z,28.27
2022-08-02T19:48:28.105Z,28.17
2022-08-02T19:51:01.181Z,28.12
2022-08-02T19:53:46.957Z,28.09
2022-08-02T19:56:25.032Z,28.02
2022-08-02T19:58:57.566Z,27.91
2022-08-02T20:01:36.609Z,27.80
2022-08-02T20:04:13.073Z,27.67
2022-08-02T20:06:47.493Z,27.58
2022-08-02T20:09:21.001Z,27.51
2022-08-02T20:14:40.364Z,27.38
2022-08-02T20:17:21.574Z,27.32
2022-08-02T20:19:52.284Z,27.26
2022-08-02T20:22:20.671Z,27.23
2022-08-02T20:24:49.666Z,27.13
2022-08-02T20:27:21.752Z,27.09
2022-08-02T20:29:53.077Z,27.00
2022-08-02T20:32:24.681Z,26.94
2022-08-02T20:34:54.881Z,26.89
2022-08-02T20:37:59.800Z,26.88
2022-08-02T20:43:02.458Z,26.69
2022-08-02T20:45:33.721Z,26.61
2022-08-02T20:48:02.571Z,26.60
2022-08-02T20:50:53.223Z,26.61
2022-08-02T20:53:25.924Z,26.57
2022-08-02T20:55:58.294Z,26.56
2022-08-02T20:58:28.104Z,26.51
2022-08-02T21:00:59.241Z,26.38
2022-08-02T21:03:39.466Z,26.32
2022-08-02T21:06:15.065Z,26.27
2022-08-02T21:08:45.948Z,26.19
2022-08-02T21:11:15.323Z,26.09
2022-08-02T21:13:46.754Z,26.01
2022-08-02T21:16:19.160Z,25.94
2022-08-02T21:18:49.109Z,25.88
2022-08-02T21:21:20.532Z,25.90
2022-08-02T21:23:54.849Z,25.85
2022-08-02T21:26:27.801Z,25.70
2022-08-02T21:28:58.101Z,25.62
2022-08-02T21:31:29.845Z,25.49
2022-08-02T21:34:00.268Z,25.33
2022-08-02T21:36:33.152Z,25.40
2022-08-02T21:39:05.834Z,25.36
2022-08-02T21:44:28.638Z,25.18
2022-08-02T21:46:58.675Z,25.20
2022-08-02T21:50:08.506Z,25.21
2022-08-02T21:52:19.298Z,25.20
2022-08-02T21:54:47.825Z,25.11
2022-08-02T21:57:17.471Z,25.17
2022-08-02T21:59:46.910Z,25.09
2022-08-02T22:02:18.686Z,24.90
2022-08-02T22:04:48.332Z,24.81
2022-08-02T22:07:23.667Z,24.87
2022-08-02T22:09:53.982Z,24.85
2022-08-02T22:12:26.488Z,24.69
2022-08-02T22:14:56.528Z,24.66
2022-08-02T22:17:51.597Z,24.57
2022-08-02T22:20:19.946Z,24.49
2022-08-02T22:22:53.228Z,24.56
2022-08-02T22:25:31.475Z,24.56
2022-08-02T22:28:38.592Z,24.50
2022-08-02T22:30:56.639Z,24.47
2022-08-02T22:33:59.829Z,24.45
2022-08-02T22:36:31.681Z,24.39
2022-08-02T22:39:02.467Z,24.30
2022-08-02T22:42:02.312Z,24.24
2022-08-02T22:44:20.430Z,24.22
2022-08-02T22:46:50.506Z,24.15
2022-08-02T22:49:37.683Z,24.14
2022-08-02T22:52:10.750Z,24.18
2022-08-02T22:54:40.667Z,24.17
2022-08-02T22:57:12.845Z,24.17
2022-08-02T22:58:55.966Z,26.78
2022-08-02T22:59:07.335Z,27.46
2022-08-02T22:59:41.845Z,24.07
2022-08-02T23:02:10.529Z,23.98
2022-08-02T23:04:39.362Z,23.90
2022-08-02T23:07:08.499Z,23.82
2022-08-02T23:09:37.491Z,23.82
2022-08-02T23:12:07.983Z,23.90
2022-08-02T23:14:37.367Z,23.89
2022-08-02T23:17:23.336Z,23.84
2022-08-02T23:19:52.536Z,23.79
2022-08-02T23:22:29.569Z,23.76
2022-08-02T23:25:02.362Z,23.77
2022-08-02T23:27:33.116Z,23.79
2022-08-02T23:30:02.581Z,23.67
2022-08-02T23:32:31.912Z,23.55
2022-08-02T23:35:01.376Z,23.50
2022-08-02T23:37:57.943Z,23.45
2022-08-02T23:40:39.394Z,23.44
2022-08-02T23:43:14.497Z,23.41
2022-08-02T23:45:45.973Z,23.37
2022-08-02T23:48:14.690Z,23.28
2022-08-02T23:50:44.005Z,23.29
2022-08-02T23:53:12.356Z,23.30
2022-08-02T23:55:41.533Z,23.29
2022-08-02T23:58:13.366Z,23.27
